createdAt,value
2019-01-25T00:02:27.307Z,31.40
2019-01-25T00:04:54.435Z,33.53
2019-01-25T00:07:21.189Z,32.77
2019-01-25T00:09:48.036Z,33.00
2019-01-25T00:12:15.002Z,30.97
2019-01-25T00:14:41.908Z,34.37
2019-01-25T00:17:08.968Z,30.53
2019-01-25T00:19:35.778Z,31.40
2019-01-25T00:22:03.688Z,30.67
2019-01-25T00:24:33.069Z,30.27
2019-01-25T00:26:59.966Z,30.13
2019-01-25T00:29:26.946Z,27.73
2019-01-25T00:31:53.774Z,27.17
2019-01-25T00:34:20.719Z,25.77
2019-01-25T00:36:47.607Z,26.37
2019-01-25T00:39:14.475Z,26.73
2019-01-25T00:41:41.332Z,27.10
2019-01-25T00:44:08.223Z,28.87
2019-01-25T00:46:35.070Z,28.07
2019-01-25T00:49:01.946Z,28.77
2019-01-25T00:51:28.823Z,28.50
2019-01-25T00:53:55.704Z,29.57
2019-01-25T00:56:22.571Z,25.83
2019-01-25T00:58:49.451Z,26.00
2019-01-25T01:01:16.607Z,27.40
2019-01-25T01:03:43.499Z,27.33
2019-01-25T01:06:10.619Z,27.90
2019-01-25T01:08:37.499Z,29.47
2019-01-25T01:11:04.571Z,29.10
2019-01-25T01:13:31.416Z,30.43
2019-01-25T01:15:58.447Z,28.73
2019-01-25T01:18:25.483Z,32.27
2019-01-25T01:20:52.331Z,31.13
2019-01-25T01:23:19.186Z,30.23
2019-01-25T01:25:46.204Z,30.83
2019-01-25T01:28:13.047Z,29.93
2019-01-25T01:30:39.999Z,31.57
2019-01-25T01:33:06.855Z,28.40
2019-01-25T01:35:33.840Z,31.80
2019-01-25T01:38:00.669Z,29.43
2019-01-25T01:40:27.539Z,30.10
2019-01-25T01:42:54.418Z,31.07
2019-01-25T01:45:21.483Z,29.23
2019-01-25T01:47:48.473Z,29.20
2019-01-25T01:50:16.147Z,30.83
2019-01-25T01:52:43.752Z,28.13
2019-01-25T01:55:11.182Z,29.13
2019-01-25T01:57:38.168Z,29.00
2019-01-25T02:00:08.691Z,29.33
2019-01-25T02:02:35.985Z,29.03
2019-01-25T02:05:03.871Z,28.77
2019-01-25T02:07:30.607Z,28.60
2019-01-25T02:09:57.500Z,28.80
2019-01-25T02:12:24.509Z,28.30
2019-01-25T02:14:51.476Z,30.50
2019-01-25T02:17:18.453Z,29.60
2019-01-25T02:19:45.175Z,28.40
2019-01-25T02:22:12.015Z,29.93
2019-01-25T02:24:38.768Z,30.67
2019-01-25T02:27:05.633Z,29.30
2019-01-25T02:29:32.599Z,29.90
2019-01-25T02:31:59.432Z,31.03
2019-01-25T02:34:26.407Z,29.70
2019-01-25T02:36:53.224Z,31.23
2019-01-25T02:39:20.088Z,32.07
2019-01-25T02:41:47.091Z,30.13
2019-01-25T02:44:13.957Z,31.63
2019-01-25T02:46:40.935Z,31.17
2019-01-25T02:49:07.654Z,32.10
2019-01-25T02:51:34.680Z,32.40
2019-01-25T02:54:01.575Z,32.07
2019-01-25T02:56:28.721Z,29.40
2019-01-25T02:58:55.586Z,30.20
2019-01-25T03:01:22.483Z,29.53
2019-01-25T03:03:50.540Z,29.10
2019-01-25T03:06:20.886Z,28.33
2019-01-25T03:08:47.787Z,28.67
2019-01-25T03:11:14.635Z,30.83
2019-01-25T03:13:41.349Z,31.37
2019-01-25T03:16:08.215Z,32.07
2019-01-25T03:18:35.092Z,31.50
2019-01-25T03:21:02.011Z,30.57
2019-01-25T03:23:28.899Z,30.87
2019-01-25T03:25:55.743Z,32.07
2019-01-25T03:28:22.712Z,30.53
2019-01-25T03:30:49.951Z,30.60
2019-01-25T03:33:16.848Z,30.17
2019-01-25T03:35:43.752Z,31.77
2019-01-25T03:38:10.804Z,30.40
2019-01-25T03:40:37.816Z,31.43
2019-01-25T03:43:04.739Z,28.97
2019-01-25T03:45:31.719Z,32.67
2019-01-25T03:47:58.688Z,31.83
2019-01-25T03:50:27.415Z,31.00
2019-01-25T03:52:54.358Z,30.63
2019-01-25T03:55:21.622Z,31.07
2019-01-25T03:57:48.636Z,31.70
2019-01-25T04:00:17.649Z,31.33
2019-01-25T04:02:44.917Z,31.37
2019-01-25T04:05:12.512Z,31.63
2019-01-25T04:07:39.445Z,32.40
2019-01-25T04:10:08.335Z,32.17
2019-01-25T04:12:35.172Z,33.53
2019-01-25T04:15:02.763Z,33.80
2019-01-25T04:17:29.481Z,33.77
2019-01-25T04:19:56.238Z,33.93
2019-01-25T04:22:23.227Z,34.13
2019-01-25T04:24:50.091Z,34.73
2019-01-25T04:27:16.790Z,33.20
2019-01-25T04:29:43.622Z,34.57
2019-01-25T04:32:10.599Z,33.70
2019-01-25T04:34:37.407Z,35.13
2019-01-25T04:37:04.287Z,32.67
2019-01-25T04:39:31.662Z,32.57
2019-01-25T04:41:58.671Z,34.77
2019-01-25T04:44:28.387Z,34.47
2019-01-25T04:47:05.078Z,37.13
2019-01-25T04:49:34.869Z,33.37
2019-01-25T04:52:07.949Z,36.13
2019-01-25T04:54:39.593Z,36.23
2019-01-25T04:57:09.409Z,33.30
2019-01-25T04:59:38.443Z,35.63
2019-01-25T05:02:05.417Z,35.63
2019-01-25T05:04:42.038Z,34.63
2019-01-25T05:07:09.132Z,37.03
2019-01-25T05:09:37.679Z,35.80
2019-01-25T05:12:05.143Z,36.57
2019-01-25T05:14:33.320Z,35.03
2019-01-25T05:17:00.287Z,35.00
2019-01-25T05:19:27.133Z,36.90
2019-01-25T05:21:54.136Z,38.30
2019-01-25T05:24:20.985Z,34.40
2019-01-25T05:26:49.771Z,36.17
2019-01-25T05:29:21.846Z,35.17
2019-01-25T05:31:48.839Z,37.27
2019-01-25T05:34:15.961Z,37.67
2019-01-25T05:36:46.002Z,38.20
2019-01-25T05:39:14.617Z,38.07
2019-01-25T05:41:41.408Z,35.50
2019-01-25T05:44:08.348Z,37.43
2019-01-25T05:46:35.214Z,38.20
2019-01-25T05:49:02.226Z,38.13
2019-01-25T05:51:33.521Z,37.13
2019-01-25T05:53:57.791Z,40.43
2019-01-25T05:56:24.802Z,38.43
2019-01-25T05:58:51.539Z,38.90
2019-01-25T06:01:18.455Z,36.03
2019-01-25T06:03:45.412Z,40.33
2019-01-25T06:06:12.392Z,38.65
2019-01-25T06:08:43.740Z,41.73
2019-01-25T06:11:09.444Z,40.13
2019-01-25T06:13:37.255Z,39.20
2019-01-25T06:16:04.223Z,39.10
2019-01-25T06:18:31.071Z,40.10
2019-01-25T06:20:58.264Z,38.97
2019-01-25T06:23:25.190Z,38.43
2019-01-25T06:25:55.804Z,39.53
2019-01-25T06:28:22.862Z,40.30
2019-01-25T06:30:50.015Z,39.13
2019-01-25T06:33:16.887Z,38.30
2019-01-25T06:35:43.879Z,38.30
2019-01-25T06:38:10.872Z,41.73
2019-01-25T06:40:37.735Z,40.63
2019-01-25T06:43:04.591Z,40.30
2019-01-25T06:45:31.420Z,40.57
2019-01-25T06:47:58.291Z,40.80
2019-01-25T06:50:25.187Z,40.00
2019-01-25T06:52:52.207Z,40.03
2019-01-25T06:55:19.079Z,40.97
2019-01-25T06:58:02.063Z,40.77
2019-01-25T07:00:29.347Z,40.30
2019-01-25T07:02:56.338Z,39.73
2019-01-25T07:05:23.199Z,38.23
2019-01-25T07:07:49.922Z,41.30
2019-01-25T07:10:17.250Z,41.97
2019-01-25T07:12:44.224Z,37.50
2019-01-25T07:15:12.246Z,40.27
2019-01-25T07:17:39.091Z,40.27
2019-01-25T07:20:08.751Z,39.10
2019-01-25T07:22:35.653Z,40.00
2019-01-25T07:25:03.335Z,40.17
2019-01-25T07:27:30.059Z,40.00
2019-01-25T07:29:56.822Z,41.00
2019-01-25T07:32:23.843Z,40.67
2019-01-25T07:34:50.645Z,40.07
2019-01-25T07:37:17.391Z,39.70
2019-01-25T07:39:45.239Z,39.90
2019-01-25T07:42:11.940Z,40.60
2019-01-25T07:44:38.885Z,41.00
2019-01-25T07:47:05.859Z,39.33
2019-01-25T07:49:32.611Z,40.80
2019-01-25T07:51:59.563Z,41.83
2019-01-25T07:54:26.357Z,43.53
2019-01-25T07:56:53.177Z,45.77
2019-01-25T07:59:20.032Z,43.80
2019-01-25T08:01:46.845Z,42.77
2019-01-25T08:04:13.738Z,41.70
2019-01-25T08:06:40.757Z,42.03
2019-01-25T08:09:08.641Z,41.87
2019-01-25T08:11:35.403Z,41.87
2019-01-25T08:14:02.885Z,41.33
2019-01-25T08:16:29.913Z,43.00
2019-01-25T08:18:56.620Z,42.40
2019-01-25T08:21:23.483Z,40.83
2019-01-25T08:23:50.484Z,42.60
2019-01-25T08:26:17.553Z,43.87
2019-01-25T08:28:44.558Z,43.03
2019-01-25T08:31:11.588Z,42.03
2019-01-25T08:33:38.399Z,42.33
2019-01-25T08:36:05.448Z,41.93
2019-01-25T08:38:32.381Z,42.87
2019-01-25T08:40:59.150Z,44.37
2019-01-25T08:43:25.995Z,42.10
2019-01-25T08:45:52.865Z,45.03
2019-01-25T08:48:19.707Z,40.83
2019-01-25T08:50:46.673Z,45.17
2019-01-25T08:53:13.630Z,45.73
2019-01-25T08:55:40.585Z,45.73
2019-01-25T08:58:07.598Z,44.53
2019-01-25T09:00:34.291Z,46.60
2019-01-25T09:03:01.163Z,45.43
2019-01-25T09:05:28.039Z,46.37
2019-01-25T09:07:54.999Z,45.90
2019-01-25T09:10:21.892Z,46.27
2019-01-25T09:12:48.880Z,49.60
2019-01-25T09:15:18.612Z,46.50
2019-01-25T09:17:45.647Z,46.63
2019-01-25T09:20:15.323Z,49.13
2019-01-25T09:22:42.255Z,47.50
2019-01-25T09:25:09.219Z,50.07
2019-01-25T09:27:36.178Z,46.47
2019-01-25T09:30:04.682Z,49.47
2019-01-25T09:32:31.408Z,49.70
2019-01-25T09:34:58.263Z,50.37
2019-01-25T09:37:25.103Z,48.70
2019-01-25T09:39:52.032Z,51.63
2019-01-25T09:42:19.035Z,51.20
2019-01-25T09:44:45.891Z,49.50
2019-01-25T09:47:13.028Z,52.53
2019-01-25T09:49:40.012Z,48.27
2019-01-25T09:52:06.931Z,48.13
2019-01-25T09:54:33.915Z,49.53
2019-01-25T09:57:00.642Z,50.27
2019-01-25T09:59:27.349Z,52.13
2019-01-25T10:01:54.172Z,50.33
2019-01-25T10:04:21.012Z,50.63
2019-01-25T10:06:47.846Z,48.70
2019-01-25T10:09:14.704Z,49.00
2019-01-25T10:11:41.428Z,50.37
2019-01-25T10:14:08.299Z,49.47
2019-01-25T10:16:35.203Z,50.10
2019-01-25T10:19:02.138Z,49.47
2019-01-25T10:21:28.979Z,51.60
2019-01-25T10:23:55.731Z,49.57
2019-01-25T10:26:22.463Z,51.17
2019-01-25T10:28:49.213Z,48.67
2019-01-25T10:31:16.209Z,52.50
2019-01-25T10:33:42.963Z,50.63
2019-01-25T10:36:09.728Z,51.20
2019-01-25T10:38:36.448Z,49.47
2019-01-25T10:41:03.523Z,51.50
2019-01-25T10:43:30.574Z,49.63
2019-01-25T10:45:58.326Z,52.00
2019-01-25T10:48:25.265Z,50.33
2019-01-25T10:50:52.128Z,48.60
2019-01-25T10:53:18.902Z,50.77
2019-01-25T10:55:45.959Z,52.73
2019-01-25T10:58:12.946Z,49.20
2019-01-25T11:00:39.950Z,50.60
2019-01-25T11:03:06.815Z,52.47
2019-01-25T11:05:33.768Z,51.33
2019-01-25T11:08:00.593Z,52.80
2019-01-25T11:10:27.550Z,54.00
2019-01-25T11:13:00.755Z,51.57
2019-01-25T11:15:23.745Z,53.17
2019-01-25T11:17:50.547Z,53.17
2019-01-25T11:20:18.838Z,50.70
2019-01-25T11:22:45.819Z,52.33
2019-01-25T11:25:18.445Z,49.07
2019-01-25T11:27:45.191Z,49.70
2019-01-25T11:30:12.619Z,51.20
2019-01-25T11:32:39.464Z,52.60
2019-01-25T11:35:06.518Z,54.00
2019-01-25T11:37:33.383Z,55.60
2019-01-25T11:40:00.356Z,51.83
2019-01-25T11:42:27.194Z,51.30
2019-01-25T11:44:54.191Z,53.67
2019-01-25T11:47:21.027Z,52.80
2019-01-25T11:49:48.035Z,54.27
2019-01-25T11:52:14.887Z,52.80
2019-01-25T11:54:41.837Z,54.07
2019-01-25T11:57:08.691Z,55.07
2019-01-25T11:59:35.573Z,54.73
2019-01-25T12:02:02.479Z,52.87
2019-01-25T12:04:29.474Z,52.73
2019-01-25T12:06:56.339Z,55.20
2019-01-25T12:09:23.117Z,53.47
2019-01-25T12:11:50.127Z,53.97
2019-01-25T12:14:16.892Z,54.57
2019-01-25T12:16:43.851Z,56.60
2019-01-25T12:19:10.602Z,53.97
2019-01-25T12:21:37.479Z,52.60
2019-01-25T12:24:04.687Z,52.13
2019-01-25T12:26:32.145Z,54.90
2019-01-25T12:28:59.124Z,55.63
2019-01-25T12:31:25.987Z,55.93
2019-01-25T12:33:53.311Z,53.63
2019-01-25T12:36:20.035Z,55.50
2019-01-25T12:38:46.944Z,56.47
2019-01-25T12:41:13.835Z,56.30
2019-01-25T12:43:40.715Z,55.13
2019-01-25T12:46:07.572Z,57.23
2019-01-25T12:48:34.334Z,53.90
2019-01-25T12:51:18.155Z,56.03
2019-01-25T12:53:44.922Z,55.00
2019-01-25T12:56:11.906Z,55.30
2019-01-25T12:58:38.983Z,55.27
2019-01-25T13:01:06.484Z,54.10
2019-01-25T13:03:33.531Z,53.53
2019-01-25T13:06:00.496Z,57.97
2019-01-25T13:08:27.219Z,57.93
2019-01-25T13:10:54.102Z,60.93
2019-01-25T13:13:21.098Z,55.33
2019-01-25T13:15:48.115Z,53.63
2019-01-25T13:18:14.975Z,56.90
2019-01-25T13:20:42.665Z,53.70
2019-01-25T13:23:09.555Z,53.53
2019-01-25T13:25:36.539Z,52.57
2019-01-25T13:28:03.342Z,54.90
2019-01-25T13:30:30.255Z,53.27
2019-01-25T13:32:57.897Z,56.00
2019-01-25T13:35:25.023Z,53.53
2019-01-25T13:37:52.116Z,54.80
2019-01-25T13:40:20.404Z,54.87
2019-01-25T13:42:47.411Z,55.77
2019-01-25T13:45:15.432Z,53.63
2019-01-25T13:47:42.758Z,54.83
2019-01-25T13:50:11.787Z,54.43
2019-01-25T13:52:38.675Z,56.40
2019-01-25T13:55:07.921Z,51.90
2019-01-25T13:57:34.751Z,53.47
2019-01-25T14:00:01.739Z,52.70
2019-01-25T14:02:28.630Z,54.63
2019-01-25T14:04:55.472Z,54.90
2019-01-25T14:07:22.329Z,53.83
2019-01-25T14:09:49.079Z,53.20
2019-01-25T14:12:15.939Z,52.30
2019-01-25T14:14:42.672Z,52.63
2019-01-25T14:17:09.515Z,52.43
2019-01-25T14:19:36.239Z,51.77
2019-01-25T14:22:03.460Z,52.90
2019-01-25T14:24:30.430Z,52.43
2019-01-25T14:26:57.171Z,51.87
2019-01-25T14:29:24.013Z,51.77
2019-01-25T14:31:50.959Z,53.03
2019-01-25T14:34:17.799Z,53.17
2019-01-25T14:36:44.649Z,53.77
2019-01-25T14:39:11.423Z,49.57
2019-01-25T14:41:38.221Z,53.73
2019-01-25T14:44:05.181Z,52.73
2019-01-25T14:46:32.095Z,53.80
2019-01-25T14:48:58.973Z,51.77
2019-01-25T14:51:26.028Z,52.47
2019-01-25T14:53:52.763Z,52.20
2019-01-25T14:56:23.039Z,49.73
2019-01-25T14:58:51.013Z,52.97
2019-01-25T15:01:17.938Z,52.30
2019-01-25T15:03:44.647Z,52.00
2019-01-25T15:06:11.475Z,53.97
2019-01-25T15:08:38.327Z,50.03
2019-01-25T15:11:05.128Z,52.90
2019-01-25T15:13:31.959Z,52.07
2019-01-25T15:15:58.835Z,50.77
2019-01-25T15:18:25.712Z,51.87
2019-01-25T15:20:52.479Z,52.77
2019-01-25T15:23:19.303Z,50.90
2019-01-25T15:25:48.070Z,51.00
2019-01-25T15:28:15.064Z,53.03
2019-01-25T15:30:41.914Z,50.57
2019-01-25T15:33:08.784Z,52.23
2019-01-25T15:35:35.480Z,50.83
2019-01-25T15:38:02.488Z,54.63
2019-01-25T15:40:29.579Z,66.93
2019-01-25T15:42:57.097Z,60.37
2019-01-25T15:45:24.766Z,54.63
2019-01-25T15:47:51.755Z,49.87
2019-01-25T15:50:23.514Z,52.50
2019-01-25T15:52:50.555Z,50.80
2019-01-25T15:55:18.684Z,69.77
2019-01-25T15:57:45.665Z,56.10
2019-01-25T16:00:14.857Z,53.30
2019-01-25T16:02:41.967Z,51.97
2019-01-25T16:05:10.651Z,49.67
2019-01-25T16:07:37.385Z,52.97
2019-01-25T16:10:07.035Z,52.43
2019-01-25T16:12:34.021Z,49.00
2019-01-25T16:15:01.015Z,48.23
2019-01-25T16:17:28.152Z,51.63
2019-01-25T16:19:55.030Z,51.77
2019-01-25T16:22:21.850Z,53.43
2019-01-25T16:24:48.737Z,50.20
2019-01-25T16:27:15.729Z,50.53
2019-01-25T16:29:42.449Z,47.03
2019-01-25T16:32:09.335Z,50.17
2019-01-25T16:34:36.227Z,49.97
2019-01-25T16:37:03.160Z,49.07
2019-01-25T16:39:30.151Z,46.03
2019-01-25T16:41:56.895Z,48.33
2019-01-25T16:44:25.805Z,46.90
2019-01-25T16:46:52.423Z,42.63
2019-01-25T16:49:19.334Z,45.27
2019-01-25T16:51:46.091Z,45.47
2019-01-25T16:54:12.854Z,45.63
2019-01-25T16:56:39.731Z,43.80
2019-01-25T16:59:06.707Z,43.73
2019-01-25T17:01:33.581Z,42.53
2019-01-25T17:04:00.472Z,42.00
2019-01-25T17:06:27.388Z,43.97
2019-01-25T17:08:54.100Z,42.97
2019-01-25T17:11:20.985Z,38.47
2019-01-25T17:13:47.703Z,36.63
2019-01-25T17:16:14.564Z,31.07
2019-01-25T17:18:41.287Z,29.30
2019-01-25T17:21:08.252Z,27.73
2019-01-25T17:23:35.062Z,23.57
2019-01-25T17:26:01.900Z,23.17
2019-01-25T17:28:28.703Z,21.00
2019-01-25T17:30:55.517Z,21.87
2019-01-25T17:33:22.282Z,20.60
2019-01-25T17:35:49.528Z,22.37
2019-01-25T17:38:16.371Z,21.73
2019-01-25T17:40:46.921Z,21.90
2019-01-25T17:43:13.811Z,21.13
2019-01-25T17:45:40.712Z,21.23
2019-01-25T17:48:07.635Z,23.27
2019-01-25T17:50:34.643Z,24.50
2019-01-25T17:53:01.751Z,24.07
2019-01-25T17:55:29.471Z,24.63
2019-01-25T17:57:56.520Z,26.47
2019-01-25T18:00:30.552Z,27.23
2019-01-25T18:02:57.619Z,28.63
2019-01-25T18:05:24.606Z,29.40
2019-01-25T18:07:51.663Z,28.97
2019-01-25T18:10:19.343Z,30.43
2019-01-25T18:12:46.167Z,30.87
2019-01-25T18:15:13.649Z,31.10
2019-01-25T18:17:40.507Z,30.70
2019-01-25T18:20:09.286Z,30.63
2019-01-25T18:22:36.279Z,30.63
2019-01-25T18:25:04.391Z,28.67
2019-01-25T18:27:31.119Z,30.73
2019-01-25T18:29:59.418Z,30.17
2019-01-25T18:32:26.454Z,31.33
2019-01-25T18:34:53.292Z,31.20
2019-01-25T18:37:20.170Z,33.27
2019-01-25T18:39:47.172Z,31.17
2019-01-25T18:42:14.320Z,31.90
2019-01-25T18:44:41.051Z,30.00
2019-01-25T18:47:07.959Z,30.30
2019-01-25T18:49:34.835Z,31.30
2019-01-25T18:52:01.871Z,32.33
2019-01-25T18:54:28.598Z,31.93
2019-01-25T18:56:55.697Z,32.90
2019-01-25T18:59:22.718Z,30.90
2019-01-25T19:01:49.910Z,32.80
2019-01-25T19:04:16.830Z,29.33
2019-01-25T19:06:43.859Z,32.23
2019-01-25T19:09:10.863Z,33.83
2019-01-25T19:11:37.703Z,33.80
2019-01-25T19:14:04.758Z,32.37
2019-01-25T19:16:31.483Z,33.60
2019-01-25T19:18:58.354Z,32.90
2019-01-25T19:21:25.087Z,34.17
2019-01-25T19:23:51.827Z,32.97
2019-01-25T19:26:19.554Z,35.10
2019-01-25T19:28:46.627Z,34.97
2019-01-25T19:31:13.554Z,35.10
2019-01-25T19:33:40.571Z,32.87
2019-01-25T19:36:07.555Z,34.17
2019-01-25T19:38:34.429Z,36.87
2019-01-25T19:41:01.159Z,36.00
2019-01-25T19:43:28.050Z,34.70
2019-01-25T19:45:55.179Z,36.13
2019-01-25T19:48:22.035Z,38.47
2019-01-25T19:50:49.003Z,36.33
2019-01-25T19:53:15.707Z,37.03
2019-01-25T19:55:42.703Z,37.50
2019-01-25T19:58:12.576Z,38.00
2019-01-25T20:00:40.156Z,39.20
2019-01-25T20:03:07.215Z,37.20
2019-01-25T20:05:34.295Z,40.70
2019-01-25T20:08:01.343Z,38.77
2019-01-25T20:10:28.293Z,40.57
2019-01-25T20:12:55.383Z,39.10
2019-01-25T20:15:22.347Z,41.67
2019-01-25T20:17:49.318Z,41.37
2019-01-25T20:20:21.559Z,40.03
2019-01-25T20:22:48.514Z,42.33
2019-01-25T20:25:15.558Z,41.07
2019-01-25T20:27:42.554Z,42.23
2019-01-25T20:30:13.419Z,40.90
2019-01-25T20:32:40.243Z,42.03
2019-01-25T20:35:09.299Z,42.33
2019-01-25T20:37:36.257Z,42.13
2019-01-25T20:40:05.320Z,42.60
2019-01-25T20:42:32.139Z,42.70
2019-01-25T20:44:59.071Z,41.43
2019-01-25T20:47:25.850Z,43.47
2019-01-25T20:49:52.694Z,43.00
2019-01-25T20:52:19.571Z,43.43
2019-01-25T20:54:46.463Z,43.13
2019-01-25T20:57:13.347Z,42.00
2019-01-25T20:59:40.223Z,42.67
2019-01-25T21:02:07.293Z,45.17
2019-01-25T21:04:34.044Z,42.47
2019-01-25T21:07:00.983Z,43.63
2019-01-25T21:09:27.858Z,45.10
2019-01-25T21:11:54.822Z,41.50
2019-01-25T21:14:21.730Z,45.47
2019-01-25T21:16:48.629Z,41.40
2019-01-25T21:19:15.614Z,42.23
2019-01-25T21:21:42.570Z,44.27
2019-01-25T21:24:10.150Z,39.73
2019-01-25T21:26:37.096Z,42.37
2019-01-25T21:29:04.175Z,45.00
2019-01-25T21:31:31.035Z,42.07
2019-01-25T21:33:57.904Z,45.37
2019-01-25T21:36:24.910Z,40.57
2019-01-25T21:38:51.766Z,45.97
2019-01-25T21:41:18.791Z,44.67
2019-01-25T21:43:45.796Z,40.27
2019-01-25T21:46:12.728Z,45.23
2019-01-25T21:48:39.661Z,44.43
2019-01-25T21:51:06.789Z,42.53
2019-01-25T21:53:33.757Z,44.67
2019-01-25T21:56:00.615Z,46.83
2019-01-25T21:58:27.358Z,40.70
2019-01-25T22:00:54.779Z,42.77
2019-01-25T22:03:21.745Z,43.00
2019-01-25T22:05:48.736Z,41.67
2019-01-25T22:08:19.165Z,42.20
2019-01-25T22:10:47.842Z,46.40
2019-01-25T22:13:14.796Z,40.90
2019-01-25T22:15:41.643Z,42.60
2019-01-25T22:18:09.789Z,42.33
2019-01-25T22:20:36.866Z,42.03
2019-01-25T22:23:04.171Z,39.20
2019-01-25T22:25:31.063Z,40.70
2019-01-25T22:27:58.512Z,40.17
2019-01-25T22:30:25.621Z,43.20
2019-01-25T22:32:52.483Z,42.10
2019-01-25T22:35:19.615Z,42.67
2019-01-25T22:37:46.716Z,43.70
2019-01-25T22:40:19.168Z,38.10
2019-01-25T22:42:46.012Z,41.53
2019-01-25T22:45:15.202Z,41.63
2019-01-25T22:47:42.059Z,42.03
2019-01-25T22:50:15.214Z,41.40
2019-01-25T22:52:42.084Z,41.10
2019-01-25T22:55:10.539Z,40.13
2019-01-25T22:57:37.383Z,42.80
2019-01-25T23:00:14.630Z,41.53
2019-01-25T23:02:41.992Z,38.43
2019-01-25T23:05:51.115Z,42.20
2019-01-25T23:08:17.864Z,42.13
2019-01-25T23:10:44.722Z,42.73
2019-01-25T23:13:11.458Z,45.07
2019-01-25T23:15:38.446Z,41.40
2019-01-25T23:18:05.492Z,41.07
2019-01-25T23:20:32.240Z,42.77
2019-01-25T23:22:59.283Z,42.80
2019-01-25T23:25:26.031Z,42.00
2019-01-25T23:27:53.506Z,41.40
2019-01-25T23:30:20.527Z,43.20
2019-01-25T23:32:47.246Z,41.73
2019-01-25T23:35:14.110Z,40.57
2019-01-25T23:37:40.930Z,39.77
2019-01-25T23:40:10.815Z,39.33
2019-01-25T23:42:37.799Z,37.97
2019-01-25T23:45:06.642Z,36.33
2019-01-25T23:47:33.540Z,34.73
2019-01-25T23:50:00.382Z,36.77
2019-01-25T23:52:27.143Z,39.47
2019-01-25T23:54:54.003Z,36.07
2019-01-25T23:57:20.709Z,35.10
2019-01-25T23:59:47.686Z,35.50
